Time,TemperatureF,DewpointF,PressureIn,WindDirection,WindDirectionDegrees,WindSpeedMPH,WindSpeedGustMPH,Humidity,HourlyPrecipIn,Conditions,Clouds,dailyrainin,SoftwareType,DateUTC
2013-02-04 09:41:00,27.3,7.8,29.91,SSW,202,6.7,8.5,43,0.00,,,0.00,VWS V14.01,2013-02-04 14:41:00,
2013-02-04 09:46:00,27.9,7.8,29.91,NW,315,2.2,2.2,42,0.00,,,0.00,VWS V14.01,2013-02-04 14:46:00,
2013-02-04 09:51:00,28.6,8.4,29.91,West,270,6.3,6.7,42,0.00,,,0.00,VWS V14.01,2013-02-04 14:51:00,
2013-02-04 09:58:00,28.4,8.2,29.88,SW,225,4.0,7.2,42,0.00,,,0.00,VWS V14.01,2013-02-04 14:58:00,
2013-02-04 10:15:00,28.2,8.1,29.88,SSW,202,8.1,8.1,42,0.00,,,0.00,VWS V14.01,2013-02-04 15:15:00,
2013-02-04 19:20:00,21.7,2.2,29.88,SW,225,0.0,0.0,42,0.00,,,0.00,VWS V14.01,2013-02-05 00:20:00,
2013-02-04 19:25:00,21.6,2.0,29.91,SW,225,0.0,0.0,42,0.00,,CLR,0.00,VWS V14.01,2013-02-05 00:25:00,
2013-02-04 19:30:00,21.4,1.9,29.91,SW,225,0.0,0.0,42,0.00,,CLR,0.00,VWS V14.01,2013-02-05 00:30:00,
2013-02-04 19:35:00,21.2,2.2,29.91,SW,225,0.0,0.0,43,0.00,,CLR,0.00,VWS V14.01,2013-02-05 00:35:00,
2013-02-04 19:40:00,21.2,2.2,29.91,SW,225,0.0,0.0,43,0.00,,CLR,0.00,VWS V14.01,2013-02-05 00:40:00,
2013-02-04 19:45:00,21.0,2.0,29.91,SW,225,0.0,0.0,43,0.00,,CLR,0.00,VWS V14.01,2013-02-05 00:45:00,
2013-02-04 19:50:00,21.0,2.0,29.91,SW,225,0.0,0.0,43,0.00,,CLR,0.00,VWS V14.01,2013-02-05 00:50:00,
2013-02-04 19:55:00,21.0,2.0,29.88,SW,225,0.0,0.0,43,0.00,,CLR,0.00,VWS V14.01,2013-02-05 00:55:00,
2013-02-04 20:00:00,21.0,2.0,29.88,SW,225,0.0,0.0,43,0.00,,CLR,0.00,VWS V14.01,2013-02-05 01:00:00,
2013-02-04 20:05:00,21.0,2.0,29.88,SW,225,0.0,0.0,43,0.00,,CLR,0.00,VWS V14.01,2013-02-05 01:05:00,
2013-02-04 20:10:00,21.0,2.0,29.91,WSW,248,0.0,0.0,43,0.00,,CLR,0.00,VWS V14.01,2013-02-05 01:10:00,
2013-02-04 20:15:00,21.0,2.0,29.91,WSW,248,0.0,0.0,43,0.00,,CLR,0.00,VWS V14.01,2013-02-05 01:15:00,
2013-02-04 20:20:00,21.2,2.2,29.91,WSW,248,0.0,0.0,43,0.00,,CLR,0.00,VWS V14.01,2013-02-05 01:20:00,
2013-02-04 20:25:00,21.2,2.7,29.91,WSW,248,0.0,0.0,44,0.00,,CLR,0.00,VWS V14.01,2013-02-05 01:25:00,
2013-02-04 20:30:00,21.2,2.7,29.91,WSW,248,0.0,0.0,44,0.00,,CLR,0.00,VWS V14.01,2013-02-05 01:30:00,
2013-02-04 20:35:00,21.2,2.7,29.91,WSW,248,0.0,0.0,44,0.00,,CLR,0.00,VWS V14.01,2013-02-05 01:35:00,
2013-02-04 20:40:00,21.4,2.9,29.91,WSW,248,0.0,0.0,44,0.00,,CLR,0.00,VWS V14.01,2013-02-05 01:40:00,
2013-02-04 20:45:00,21.4,2.9,29.91,SW,225,0.0,0.0,44,0.00,,CLR,0.00,VWS V14.01,2013-02-05 01:45:00,
2013-02-04 20:50:00,21.4,2.9,29.91,SW,225,0.0,0.0,44,0.00,,CLR,0.00,VWS V14.01,2013-02-05 01:50:00,
2013-02-04 20:56:00,21.4,3.3,29.91,South,180,0.0,0.0,45,0.00,,CLR,0.00,VWS V14.01,2013-02-05 01:56:00,
2013-02-04 21:01:00,21.4,3.3,29.91,South,180,0.0,0.0,45,0.00,,CLR,0.00,VWS V14.01,2013-02-05 02:01:00,
2013-02-04 21:06:00,21.2,3.2,29.91,South,180,0.0,0.0,45,0.00,,CLR,0.00,VWS V14.01,2013-02-05 02:06:00,
2013-02-04 21:11:00,21.0,3.0,29.91,South,180,0.0,0.0,45,0.00,,CLR,0.00,VWS V14.01,2013-02-05 02:11:00,
2013-02-04 21:16:00,21.0,3.0,29.91,South,180,0.0,0.0,45,0.00,,CLR,0.00,VWS V14.01,2013-02-05 02:16:00,
2013-02-04 21:21:00,21.0,3.0,29.91,SSW,202,0.0,0.0,45,0.00,,CLR,0.00,VWS V14.01,2013-02-05 02:21:00,
2013-02-04 21:26:00,21.0,3.0,29.91,SSW,202,0.0,0.0,45,0.00,,CLR,0.00,VWS V14.01,2013-02-05 02:26:00,
2013-02-04 21:31:00,21.0,3.0,29.91,SSW,202,0.0,0.0,45,0.00,,CLR,0.00,VWS V14.01,2013-02-05 02:31:00,
2013-02-04 21:36:00,21.0,3.0,29.91,SSW,202,0.0,0.0,45,0.00,,CLR,0.00,VWS V14.01,2013-02-05 02:36:00,
2013-02-04 21:41:00,21.0,3.0,29.91,SSW,202,0.0,0.0,45,0.00,,OVC120,0.00,VWS V14.01,2013-02-05 02:41:00,
2013-02-04 21:46:00,21.2,3.7,29.91,SSW,202,0.0,0.0,46,0.00,,OVC120,0.00,VWS V14.01,2013-02-05 02:46:00,
2013-02-04 21:51:00,21.2,3.7,29.91,SSW,202,0.0,0.0,46,0.00,,OVC120,0.00,VWS V14.01,2013-02-05 02:51:00,
2013-02-04 21:56:00,21.2,3.7,29.91,SSW,202,0.0,0.0,46,0.00,,OVC120,0.00,VWS V14.01,2013-02-05 02:56:00,
2013-02-04 22:01:00,21.2,3.7,29.91,SSW,202,0.0,0.0,46,0.00,,OVC120,0.00,VWS V14.01,2013-02-05 03:01:00,
2013-02-04 22:06:00,21.2,3.7,29.91,SSW,202,0.0,0.0,46,0.00,,OVC120,0.00,VWS V14.01,2013-02-05 03:06:00,
2013-02-04 22:11:00,21.2,3.7,29.91,SSW,202,0.0,0.0,46,0.00,,OVC120,0.00,VWS V14.01,2013-02-05 03:11:00,
2013-02-04 22:16:00,21.2,3.7,29.91,SSW,202,0.0,0.0,46,0.00,,OVC120,0.00,VWS V14.01,2013-02-05 03:16:00,
2013-02-04 22:21:00,21.2,4.1,29.91,SSW,202,0.0,0.0,47,0.00,,OVC120,0.00,VWS V14.01,2013-02-05 03:21:00,
2013-02-04 22:26:00,21.2,4.1,29.91,SSW,202,0.0,0.0,47,0.00,,OVC120,0.00,VWS V14.01,2013-02-05 03:26:00,
2013-02-04 22:31:00,21.2,4.1,29.91,SSW,202,0.0,0.0,47,0.00,,OVC120,0.00,VWS V14.01,2013-02-05 03:31:00,
2013-02-04 22:37:00,21.2,4.1,29.91,NE,45,0.0,0.0,47,0.00,,OVC120,0.00,VWS V14.01,2013-02-05 03:37:00,
2013-02-04 22:42:00,21.2,4.1,29.91,NE,45,0.0,0.0,47,0.00,,OVC110,0.00,VWS V14.01,2013-02-05 03:42:00,
2013-02-04 22:47:00,21.2,4.1,29.91,NE,45,0.0,0.0,47,0.00,,OVC110,0.00,VWS V14.01,2013-02-05 03:47:00,
2013-02-04 22:52:00,21.2,4.1,29.91,NE,45,0.0,0.0,47,0.00,,OVC110,0.00,VWS V14.01,2013-02-05 03:52:00,
2013-02-04 22:57:00,21.2,4.6,29.91,NE,45,0.0,0.0,48,0.00,,OVC110,0.00,VWS V14.01,2013-02-05 03:57:00,
2013-02-04 23:02:00,21.2,4.6,29.91,East,90,0.0,0.0,48,0.00,,OVC110,0.00,VWS V14.01,2013-02-05 04:02:00,
2013-02-04 23:07:00,21.2,5.0,29.91,East,90,0.0,0.0,49,0.00,,OVC110,0.00,VWS V14.01,2013-02-05 04:07:00,
2013-02-04 23:12:00,21.2,5.0,29.91,ENE,68,0.0,0.0,49,0.00,,OVC110,0.00,VWS V14.01,2013-02-05 04:12:00,
2013-02-04 23:17:00,21.2,5.5,29.91,NE,45,0.0,0.0,50,0.00,,OVC110,0.00,VWS V14.01,2013-02-05 04:17:00,
2013-02-04 23:22:00,21.2,5.5,29.91,ENE,68,0.0,0.0,50,0.00,,OVC110,0.00,VWS V14.01,2013-02-05 04:22:00,
2013-02-04 23:27:00,21.2,5.5,29.91,East,90,0.0,0.0,50,0.00,,OVC110,0.00,VWS V14.01,2013-02-05 04:27:00,
2013-02-04 23:32:00,21.2,5.9,29.91,East,90,0.0,0.0,51,0.00,,OVC110,0.00,VWS V14.01,2013-02-05 04:32:00,
2013-02-04 23:37:00,21.2,5.9,29.91,NE,45,0.0,0.0,51,0.00,,OVC110,0.00,VWS V14.01,2013-02-05 04:37:00,
2013-02-04 23:42:00,21.4,6.1,29.91,NNE,22,0.0,0.0,51,0.00,,OVC110,0.00,VWS V14.01,2013-02-05 04:42:00,
2013-02-04 23:47:00,21.4,6.1,29.91,NNE,22,0.0,0.0,51,0.00,,OVC110,0.00,VWS V14.01,2013-02-05 04:47:00,
2013-02-04 23:52:00,21.6,6.7,29.91,NNE,22,0.0,0.0,52,0.00,,OVC110,0.00,VWS V14.01,2013-02-05 04:52:00,
2013-02-04 23:57:00,21.6,6.7,29.91,NNE,22,0.0,0.0,52,0.00,,OVC110,0.00,VWS V14.01,2013-02-05 04:57:00,